Latest Weather Observations for Coldstream

IDV60801

Issued at 9:42 am EDT Thursday 23 January 2020 (issued every 10 minutes, with the page automatically refreshed every 10 minutes)

About weather observations | Map of weather stations | Latest weather observations for VIC | Other Formats
Station Details ID: 086383 Name: COLDSTREAM Lat: -37.72 Lon: 145.41 Height: 83.0 m
Data from the previous 72 hours. | See also: Recent months at Coldstream
Date/Time
EDT
Temp
°C
App
Temp
°C
Dew
Point
°C
Rel
Hum
%
Delta-T
°C
Wind Press
QNH
hPa
Press
MSL
hPa
Rain since
9am
mm
Dir  Spd
km/h
Gust
km/h
Spd
kts
Gust
kts
23/09:30am 14.6 15.7 14.6 100 0.0 NW 2 7 1 4 997.5 997.2 0.0
23/09:00am 14.1 14.3 14.1 100 0.0 WSW 6 11 3 6 997.3 997.0 20.6
23/08:30am 13.7 14.9 13.7 100 0.0 CALM 0 0 0 0 997.2 996.9 20.0
23/08:00am 13.3 14.3 13.3 100 0.0 CALM 0 0 0 0 996.7 996.4 19.8
23/07:30am 13.2 14.2 13.2 100 0.0 CALM 0 2 0 1 996.5 996.2 19.6
23/07:00am 13.1 14.1 13.1 100 0.0 CALM 0 6 0 3 996.5 996.2 19.2
23/06:30am 13.1 13.3 13.1 100 0.0 NE 4 7 2 4 996.5 996.2 18.8
23/06:00am 13.1 12.9 13.1 100 0.0 ENE 6 9 3 5 996.8 996.5 18.2
23/05:30am 13.2 13.8 13.2 100 0.0 N 2 7 1 4 997.3 997.0 17.8
23/05:00am 13.0 13.2 13.0 100 0.0 WNW 4 7 2 4 998.3 998.0 17.0
23/04:30am 13.0 11.9 13.0 100 0.0 WSW 11 17 6 9 997.7 997.4 16.4
23/04:00am 13.1 9.8 12.9 99 0.1 WSW 22 28 12 15 997.3 997.0 14.2
23/03:30am 14.6 13.6 14.6 100 0.0 WSW 13 28 7 15 997.8 997.5 11.0
23/03:00am 15.2 15.8 15.2 100 0.0 WSW 6 11 3 6 997.3 997.0 10.2
23/02:30am 15.5 16.0 15.5 100 0.0 ESE 7 15 4 8 997.5 997.2 8.4
23/02:00am 15.6 17.4 15.6 100 0.0 CALM 0 0 0 0 998.7 998.4 6.4
23/01:30am 15.5 14.5 15.5 100 0.0 SE 15 24 8 13 997.6 997.3 5.0
23/01:00am 15.5 16.0 15.5 100 0.0 SSE 7 15 4 8 999.5 999.3 4.2
23/12:30am 15.7 15.8 15.5 99 0.1 SSE 9 15 5 8 999.3 999.1 4.0
23/12:00am 16.2 15.8 16.2 100 0.0 ESE 13 22 7 12 999.5 999.3 3.8
 
Date/Time
EDT
Temp
°C
App
Temp
°C
Dew
Point
°C
Rel
Hum
%
Delta-T
°C
Wind Press
QNH
hPa
Press
MSL
hPa
Rain since
9am
mm
Dir  Spd
km/h
Gust
km/h
Spd
kts
Gust
kts
22/11:54pm 16.3 16.3 16.3 100 0.0 E 11 20 6 11 999.9 999.7 3.6
22/11:30pm 16.6 18.4 16.4 99 0.1 SW 2 11 1 6 1002.0 1001.7 2.4
22/11:00pm 16.7 16.4 16.5 99 0.1 ESE 13 22 7 12 1001.2 1001.0 1.0
22/10:30pm 17.5 17.9 16.4 93 0.7 SSE 9 15 5 8 1001.1 1000.9 0.6
22/10:00pm 18.1 16.3 15.4 84 1.6 WSW 19 33 10 18 999.9 999.7 0.0
22/09:53pm 18.3 15.7 15.0 81 1.9 WSW 22 33 12 18 999.6 999.4 0.0
22/09:30pm 19.8 16.6 14.2 70 3.3 WSW 24 35 13 19 997.6 997.3 0.0
22/09:00pm 21.3 17.2 13.7 62 4.4 SW 28 54 15 29 996.7 996.4 0.0
22/08:57pm 23.3 19.3 12.9 52 6.0 SW 26 52 14 28 996.9 996.6 0.0
22/08:32pm 28.2 22.8 9.5 31 10.4 NNE 28 52 15 28 994.9 994.6 0.0
22/08:30pm 28.0 22.9 9.3 31 10.4 NNE 26 41 14 22 994.9 994.6 0.0
22/08:18pm 27.8 22.4 9.6 32 10.1 NNE 28 46 15 25 995.5 995.2 0.0
22/08:00pm 27.6 23.1 9.9 33 10.0 NNE 24 43 13 23 996.0 995.7 0.0
22/07:30pm 27.5 23.4 10.2 34 9.7 N 22 35 12 19 996.5 996.2 0.0
22/07:00pm 27.7 23.2 10.0 33 10.0 N 24 44 13 24 997.2 996.9 0.0
22/06:43pm 28.8 23.3 9.0 29 11.0 N 28 67 15 36 997.6 997.3 0.0
22/06:30pm 28.8 25.1 9.5 30 10.8 NNW 19 33 10 18 997.4 997.1 0.0
22/06:00pm 28.6 25.4 9.8 31 10.6 N 17 33 9 18 997.0 996.7 0.0
22/05:30pm 29.1 24.9 9.8 30 10.9 NNE 22 43 12 23 996.9 996.6 0.0
22/05:00pm 29.0 24.4 9.7 30 10.9 N 24 39 13 21 997.6 997.3 0.0
22/04:30pm 29.0 23.3 9.7 30 10.8 N 30 50 16 27 998.0 997.7 0.0
22/04:00pm 30.5 24.3 9.4 27 11.9 NNW 32 50 17 27 999.1 998.9 0.0
22/03:30pm 30.9 25.7 10.3 28 11.8 NNW 28 50 15 27 999.0 998.8 0.0
22/03:15pm 31.4 26.5 11.2 29 11.8 NNW 28 48 15 26 998.8 998.5 0.0
22/03:00pm 30.3 24.7 10.3 29 11.5 N 30 44 16 24 999.1 998.9 0.0
22/02:32pm 30.5 25.4 10.5 29 11.5 N 28 56 15 30 999.6 999.4 0.0
22/02:30pm 30.5 26.1 10.5 29 11.5 N 24 46 13 25 999.6 999.4 0.0
22/02:00pm 29.3 25.8 10.9 32 10.6 N 20 39 11 21 1000.2 1000.0 0.0
22/01:30pm 29.3 25.6 11.4 33 10.4 N 22 35 12 19 1000.6 1000.4 0.0
22/01:04pm 28.8 23.9 11.4 34 10.0 N 28 50 15 27 1001.3 1001.1 0.0
22/01:00pm 28.7 24.4 10.8 33 10.3 N 24 50 13 27 1001.3 1001.1 0.0
22/12:30pm 28.7 24.8 12.2 36 9.6 N 24 39 13 21 1001.9 1001.6 0.0
22/12:00pm 28.3 25.2 12.2 37 9.4 NNE 20 37 11 20 1002.1 1001.8 0.0
22/11:30am 26.9 23.7 11.8 39 8.7 N 20 33 11 18 1002.3 1002.0 0.0
22/11:00am 26.7 23.7 12.7 42 8.2 N 20 39 11 21 1003.0 1002.7 0.0
22/10:30am 25.9 22.8 13.4 46 7.4 N 22 56 12 30 1003.4 1003.1 0.0
22/10:00am 25.3 22.6 13.5 48 7.0 N 20 35 11 19 1003.7 1003.4 0.0
22/09:30am 23.6 21.6 12.6 50 6.3 NNE 15 35 8 19 1004.1 1003.8 0.0
22/09:00am 23.2 21.9 12.5 51 6.1 NNE 11 19 6 10 1004.6 1004.3 0.0
22/08:30am 22.2 20.4 12.2 53 5.7 NE 13 24 7 13 1004.6 1004.3 0.0
22/08:00am 21.0 18.7 11.6 55 5.3 NNE 15 26 8 14 1004.9 1004.6 0.0
22/07:41am 18.8 18.2 13.4 71 3.1 NE 9 24 5 13 1004.9 1004.6 0.0
22/07:30am 13.8 14.6 13.6 99 0.1 NNE 2 7 1 4 1005.1 1004.8 0.0
22/07:00am 11.6 12.0 11.4 99 0.1 CALM 0 0 0 0 1005.3 1005.0 0.0
22/06:30am 11.2 11.5 11.0 99 0.1 CALM 0 0 0 0 1005.2 1004.9 0.0
22/06:00am 11.2 11.2 11.0 99 0.1 SSW 2 9 1 5 1005.3 1005.0 0.0
22/05:30am 11.5 11.6 11.5 100 0.0 S 2 7 1 4 1005.3 1005.0 0.0
22/05:00am 11.2 11.6 11.2 100 0.0 CALM 0 6 0 3 1005.3 1005.0 0.0
22/04:30am 10.8 11.1 10.8 100 0.0 CALM 0 0 0 0 1005.4 1005.1 0.0
22/04:00am 11.0 11.0 11.0 100 0.0 SSE 2 7 1 4 1005.6 1005.3 0.0
22/03:30am 11.1 10.7 11.1 100 0.0 S 4 7 2 4 1005.9 1005.6 0.0
22/03:00am 11.7 11.5 11.7 100 0.0 SSE 4 11 2 6 1006.1 1005.8 0.0
22/02:30am 11.4 11.1 11.4 100 0.0 SSE 4 9 2 5 1006.3 1006.0 0.0
22/02:00am 10.9 11.1 10.7 99 0.1 CALM 0 0 0 0 1006.6 1006.3 0.0
22/01:30am 11.3 11.7 11.1 99 0.1 CALM 0 0 0 0 1006.8 1006.5 0.0
22/01:00am 11.1 11.4 10.9 99 0.1 CALM 0 6 0 3 1006.9 1006.6 0.0
22/12:30am 11.7 12.2 11.5 99 0.1 CALM 0 0 0 0 1007.4 1007.1 0.0
22/12:00am 12.1 12.6 11.6 97 0.3 CALM 0 0 0 0 1007.5 1007.2 0.0
 
Date/Time
EDT
Temp
°C
App
Temp
°C
Dew
Point
°C
Rel
Hum
%
Delta-T
°C
Wind Press
QNH
hPa
Press
MSL
hPa
Rain since
9am
mm
Dir  Spd
km/h
Gust
km/h
Spd
kts
Gust
kts
21/11:30pm 12.9 13.5 12.0 94 0.5 CALM 0 0 0 0 1008.0 1007.7 0.0
21/11:00pm 14.2 14.0 11.9 86 1.2 SSE 4 7 2 4 1008.1 1007.8 0.0
21/10:30pm 14.8 14.1 11.9 83 1.6 SE 7 13 4 7 1008.0 1007.7 0.0
21/10:00pm 15.3 14.4 11.5 78 2.1 ESE 7 9 4 5 1007.9 1007.6 0.0
21/09:30pm 16.5 15.3 11.6 73 2.7 SSE 9 15 5 8 1007.8 1007.5 0.0
21/09:00pm 17.1 15.9 11.6 70 3.0 SSE 9 19 5 10 1007.6 1007.3 0.0
21/08:30pm 18.1 15.4 11.7 66 3.5 SE 17 24 9 13 1007.3 1007.0 0.0
21/08:00pm 19.5 16.5 12.0 62 4.2 SE 19 32 10 17 1007.0 1006.7 0.0
21/07:30pm 21.8 19.3 12.4 55 5.3 SE 17 30 9 16 1006.7 1006.4 0.0
21/07:00pm 23.3 21.8 12.0 49 6.4 SSE 11 19 6 10 1006.4 1006.1 0.0
21/06:30pm 24.0 22.5 13.2 50 6.3 S 13 20 7 11 1006.3 1006.0 0.0
21/06:00pm 25.3 24.5 11.1 41 8.0 SSW 6 11 3 6 1006.2 1005.9 0.0
21/05:30pm 24.2 23.3 10.8 43 7.5 SSE 6 17 3 9 1006.5 1006.2 0.0
21/05:00pm 24.3 24.9 11.9 45 7.1 CALM 0 9 0 5 1006.7 1006.4 0.0
21/04:30pm 24.4 23.4 12.4 47 6.9 SSE 9 15 5 8 1007.1 1006.8 0.0
21/04:00pm 23.5 22.8 11.9 48 6.6 NNW 7 15 4 8 1007.6 1007.3 0.0
21/03:30pm 22.9 21.8 10.7 46 6.8 SE 7 11 4 6 1007.9 1007.6 0.0
21/03:00pm 22.5 20.9 11.6 50 6.1 W 11 22 6 12 1008.3 1008.0 0.0
21/02:30pm 22.3 20.3 11.4 50 6.1 W 13 24 7 13 1008.7 1008.4 0.0
21/02:00pm 21.2 19.0 10.7 51 5.8 WNW 13 20 7 11 1009.2 1008.9 0.0
21/01:30pm 20.6 19.1 10.7 53 5.4 W 9 17 5 9 1009.5 1009.3 0.0
21/01:00pm 19.6 18.0 10.3 55 5.0 N 9 19 5 10 1009.9 1009.7 0.0
21/12:30pm 18.6 16.7 10.4 59 4.4 WNW 11 17 6 9 1010.4 1010.2 0.0
21/12:00pm 17.7 16.0 9.8 60 4.2 SSW 9 17 5 9 1010.5 1010.3 0.0
21/11:30am 17.5 16.0 10.6 64 3.7 SW 9 19 5 10 1010.7 1010.5 0.0
21/11:00am 17.1 15.8 10.0 63 3.8 NW 7 17 4 9 1011.0 1010.8 0.0
21/10:30am 16.3 15.0 11.2 72 2.8 WSW 9 17 5 9 1011.1 1010.9 0.0
21/10:00am 16.0 15.0 12.4 79 2.0 WSW 9 13 5 7 1011.0 1010.8 0.0
21/09:30am 15.2 14.7 12.7 85 1.4 WNW 7 15 4 8 1010.9 1010.7 0.0
21/09:00am 14.6 13.8 13.0 90 0.9 WNW 9 13 5 7 1010.9 1010.7 25.8
21/08:30am 14.0 13.7 13.2 95 0.4 WNW 7 13 4 7 1010.5 1010.3 25.8
21/08:00am 13.9 12.4 13.0 94 0.5 WNW 13 19 7 10 1010.3 1010.1 25.8
21/07:30am 14.0 13.5 13.7 98 0.2 WNW 9 13 5 7 1009.7 1009.5 25.8
21/07:00am 14.0 14.1 13.8 99 0.1 WNW 6 7 3 4 1009.4 1009.2 25.8
21/06:30am 14.4 14.6 14.2 99 0.1 WNW 6 9 3 5 1009.1 1008.8 25.8
21/06:00am 14.4 15.0 14.2 99 0.1 W 4 7 2 4 1008.8 1008.5 25.8
21/05:30am 14.4 15.7 14.2 99 0.1 CALM 0 0 0 0 1008.5 1008.2 25.8
21/05:00am 14.4 15.7 14.2 99 0.1 CALM 0 0 0 0 1008.3 1008.0 25.8
21/04:30am 14.5 15.9 14.3 99 0.1 CALM 0 0 0 0 1008.1 1007.8 25.8
21/04:00am 14.4 14.5 13.9 97 0.3 SW 6 17 3 9 1007.8 1007.5 25.8
21/03:30am 14.4 15.7 14.2 99 0.1 CALM 0 0 0 0 1007.7 1007.4 25.8
21/03:00am 14.4 15.4 14.4 100 0.0 W 2 7 1 4 1007.7 1007.4 25.8
21/02:30am 14.4 13.7 14.4 100 0.0 SW 11 19 6 10 1007.8 1007.5 25.8
21/02:00am 14.4 12.6 14.4 100 0.0 SW 17 24 9 13 1007.8 1007.5 25.8
21/01:30am 15.0 13.8 15.0 100 0.0 SW 15 20 8 11 1007.6 1007.3 25.8
21/01:00am 15.3 14.2 15.3 100 0.0 SW 15 22 8 12 1007.7 1007.4 25.6
21/12:30am 15.5 15.6 15.5 100 0.0 WSW 9 15 5 8 1007.7 1007.4 25.4
21/12:00am 15.4 13.9 15.4 100 0.0 SW 17 22 9 12 1007.6 1007.3 25.4
 
Date/Time
EDT
Temp
°C
App
Temp
°C
Dew
Point
°C
Rel
Hum
%
Delta-T
°C
Wind Press
QNH
hPa
Press
MSL
hPa
Rain since
9am
mm
Dir  Spd
km/h
Gust
km/h
Spd
kts
Gust
kts
20/11:30pm 15.8 14.9 15.8 100 0.0 SW 15 24 8 13 1007.5 1007.2 25.4
20/11:00pm 15.9 15.4 15.9 100 0.0 SW 13 19 7 10 1007.3 1007.0 25.4
20/10:30pm 16.0 16.3 16.0 100 0.0 SW 9 17 5 9 1007.1 1006.8 25.2
20/10:00pm 16.0 16.7 16.0 100 0.0 WSW 7 9 4 5 1007.0 1006.7 25.0
20/09:30pm 16.2 17.9 16.2 100 0.0 SW 2 6 1 3 1006.6 1006.3 24.6
20/09:00pm 16.3 17.3 16.3 100 0.0 WSW 6 9 3 5 1006.1 1005.8 24.0
20/08:30pm 16.7 17.2 16.5 99 0.1 WSW 9 15 5 8 1005.5 1005.2 23.4
20/08:00pm 17.2 17.3 15.5 90 1.0 SSW 9 17 5 9 1005.0 1004.7 23.0
20/07:30pm 17.4 17.6 16.8 96 0.4 SW 11 17 6 9 1004.4 1004.1 23.0
20/07:00pm 17.7 17.3 17.2 97 0.3 SW 15 24 8 13 1004.0 1003.7 23.0
20/06:30pm 18.2 19.1 17.6 96 0.4 SW 9 17 5 9 1003.7 1003.4 23.0
20/06:00pm 18.3 18.1 16.8 91 0.9 S 13 30 7 16 1003.2 1002.9 23.0
20/05:30pm 18.8 19.2 17.3 91 0.9 S 11 22 6 12 1002.9 1002.6 23.0
20/05:00pm 18.9 19.0 17.4 91 0.9 SSW 13 24 7 13 1002.7 1002.4 23.0
20/04:30pm 19.1 20.6 18.9 99 0.1 SSW 9 19 5 10 1002.4 1002.1 23.0
20/04:00pm 18.9 20.0 18.9 100 0.0 SW 11 20 6 11 1002.5 1002.2 23.0
20/03:30pm 19.4 19.2 19.4 100 0.0 WSW 19 28 10 15 1002.5 1002.2 23.0
20/03:00pm 19.0 19.8 19.0 100 0.0 S 13 20 7 11 1002.3 1002.0 22.8
20/02:30pm 18.6 19.5 18.4 99 0.1 S 11 20 6 11 1002.5 1002.2 19.8
20/02:00pm 22.8 22.3 15.9 65 4.2 SSW 13 26 7 14 1002.1 1001.8 0.0
20/01:30pm 23.4 24.0 16.7 66 4.1 W 9 13 5 7 1002.2 1001.9 0.0
20/01:00pm 24.7 25.3 15.3 56 5.7 SW 6 9 3 5 1002.8 1002.5 0.0
20/12:30pm 24.0 25.2 15.8 60 5.0 E 4 9 2 5 1003.0 1002.7 0.0
20/12:00pm 23.4 24.3 16.7 66 4.1 NW 7 13 4 7 1003.6 1003.3 0.0
20/11:30am 23.1 24.2 15.7 63 4.5 SE 4 11 2 6 1004.0 1003.7 0.0
20/11:00am 22.5 23.6 17.2 72 3.3 ENE 7 13 4 7 1004.1 1003.8 0.0
20/10:30am 21.6 23.1 16.6 73 3.0 ESE 4 9 2 5 1004.2 1003.9 0.0
20/10:00am 21.5 22.8 17.1 76 2.7 ESE 6 9 3 5 1004.2 1003.9 0.0

Other formats

Comma delimited format used in spreadsheet applications
http://www.bom.gov.au/fwo/IDV60801/IDV60801.94864.axf

JavaScript Object Notation format (JSON) in row-major order
http://www.bom.gov.au/fwo/IDV60801/IDV60801.94864.json

Data quality

Most of these data are generated automatically and are frequently updated. Quality checks on data are not normally performed. It is possible for incorrect values to appear. Refer to information at About Latest Weather Observations and please check the disclaimer before using these data.